Time;durP1;ratioP1;P1;durP2;ratioP2;P2;SDS_P1;SDS_P2;PMS_P1;PMS_P2;Temp;Humidity;BMP_temperature;BMP_pressure;BME280_temperature;BME280_humidity;BME280_pressure;Samples;Min_cycle;Max_cycle;Signal;HPM_P1;HPM_P2
2021/01/19 00:00:18;;;;;;;5.93;3.50;;;;;;;1.71;85.70;96959.81;4996416;28;20670;-57
2021/01/19 00:02:43;;;;;;;5.90;3.60;;;;;;;1.67;86.67;96955.91;5001806;28;20199;-57
2021/01/19 00:05:09;;;;;;;4.80;3.20;;;;;;;1.73;86.03;96956.13;5016003;28;20910;-57
2021/01/19 00:07:34;;;;;;;4.43;3.57;;;;;;;1.72;86.60;96946.72;5015681;28;20284;-57
2021/01/19 00:10:00;;;;;;;3.93;3.57;;;;;;;1.64;86.52;96953.66;5006040;28;20201;-58
2021/01/19 00:12:25;;;;;;;4.27;3.00;;;;;;;1.61;87.11;96938.44;4998174;28;20178;-58
2021/01/19 00:14:51;;;;;;;3.23;2.50;;;;;;;1.58;86.07;96949.09;4996026;28;20228;-57
2021/01/19 00:17:17;;;;;;;3.87;3.53;;;;;;;1.62;86.85;96940.88;5008526;28;20178;-62
2021/01/19 00:19:43;;;;;;;5.43;3.50;;;;;;;1.58;86.63;96941.31;5015699;28;20260;-57
2021/01/19 00:22:08;;;;;;;5.00;4.00;;;;;;;1.41;87.81;96942.22;5015458;28;20548;-62
2021/01/19 00:24:33;;;;;;;5.67;3.80;;;;;;;1.69;86.41;96930.69;5015079;28;20194;-61
2021/01/19 00:26:59;;;;;;;4.60;3.00;;;;;;;1.76;86.24;96934.28;5006495;28;20700;-61
2021/01/19 00:29:24;;;;;;;5.43;3.03;;;;;;;1.67;85.91;96937.78;5015423;28;20179;-57
2021/01/19 00:31:50;;;;;;;4.50;2.70;;;;;;;1.65;86.67;96944.94;5015403;28;20541;-61
2021/01/19 00:34:16;;;;;;;3.30;3.00;;;;;;;1.46;86.18;96942.56;5009377;28;20200;-61
2021/01/19 00:36:41;;;;;;;3.90;3.13;;;;;;;1.78;85.71;96950.47;5035230;28;20585;-60
2021/01/19 00:39:08;;;;;;;3.00;2.60;;;;;;;1.70;86.36;96943.47;5034947;28;20423;-58
2021/01/19 00:41:34;;;;;;;3.97;3.00;;;;;;;1.75;85.40;96937.84;5008702;28;20265;-61
2021/01/19 00:43:59;;;;;;;5.73;3.30;;;;;;;1.90;85.13;96937.06;5011266;28;20443;-60
2021/01/19 00:46:24;;;;;;;3.30;3.00;;;;;;;1.84;84.58;96929.94;5014257;28;20191;-62
2021/01/19 00:48:50;;;;;;;3.67;2.80;;;;;;;1.90;84.62;96926.72;5014597;28;20186;-62
2021/01/19 00:51:15;;;;;;;4.50;2.97;;;;;;;2.06;84.33;96931.94;5014940;28;20571;-62
2021/01/19 00:53:41;;;;;;;3.20;2.87;;;;;;;2.18;83.33;96919.47;5014444;28;20286;-62
2021/01/19 00:56:06;;;;;;;4.37;3.07;;;;;;;2.47;82.79;96917.25;5014676;28;20742;-61
2021/01/19 00:58:31;;;;;;;4.03;2.90;;;;;;;2.47;81.71;96921.63;5014720;28;20571;-62
2021/01/19 01:00:57;;;;;;;2.80;2.60;;;;;;;2.50;81.95;96922.09;5010882;28;20568;-62
2021/01/19 01:03:22;;;;;;;4.57;3.30;;;;;;;2.53;81.80;96913.19;5014164;28;20180;-58
2021/01/19 01:05:48;;;;;;;4.63;2.90;;;;;;;2.63;81.26;96913.84;5014303;28;20260;-62
2021/01/19 01:08:13;;;;;;;4.33;3.20;;;;;;;2.53;81.06;96910.59;5012982;28;20177;-60
2021/01/19 01:10:38;;;;;;;3.00;2.80;;;;;;;2.67;80.94;96907.34;4995302;28;20181;-62
2021/01/19 01:13:04;;;;;;;3.60;2.43;;;;;;;2.45;80.83;96911.41;4994581;28;20183;-62
2021/01/19 01:15:37;;;;;;;3.70;2.80;;;;;;;2.58;80.92;96900.56;4998162;28;20193;-57
2021/01/19 01:18:04;;;;;;;4.17;3.43;;;;;;;2.73;80.43;96904.13;5014916;28;20220;-62
2021/01/19 01:20:29;;;;;;;5.03;3.10;;;;;;;2.59;80.11;96907.38;5014624;28;21011;-57
2021/01/19 01:22:54;;;;;;;4.27;3.13;;;;;;;2.57;80.31;96901.53;5014096;28;20500;-58
2021/01/19 01:25:20;;;;;;;4.30;2.97;;;;;;;2.50;80.40;96900.56;5010060;28;20200;-61
2021/01/19 01:27:47;;;;;;;2.90;2.60;;;;;;;2.48;81.28;96902.50;5014446;28;20184;-57
2021/01/19 01:30:14;;;;;;;3.77;3.20;;;;;;;2.46;81.22;96914.81;5013796;28;20459;-62
2021/01/19 01:32:50;;;;;;;4.50;2.63;;;;;;;2.25;81.71;96910.09;5014168;28;20506;-61
2021/01/19 01:35:21;;;;;;;6.30;3.30;;;;;;;2.13;81.90;96907.97;5014956;28;20428;-61
2021/01/19 01:37:53;;;;;;;3.17;2.83;;;;;;;1.96;82.46;96905.34;5014430;28;20504;-62
2021/01/19 01:40:21;;;;;;;6.67;3.00;;;;;;;1.98;82.91;96907.78;5013464;28;20456;-61
2021/01/19 01:42:46;;;;;;;3.40;2.90;;;;;;;1.71;83.39;96902.84;5013869;28;20443;-61
2021/01/19 01:45:15;;;;;;;3.77;3.23;;;;;;;1.38;85.02;96898.56;5013548;28;20550;-57
2021/01/19 01:47:41;;;;;;;3.50;3.20;;;;;;;1.34;85.88;96902.41;5014211;28;20223;-57
2021/01/19 01:50:08;;;;;;;2.97;2.77;;;;;;;1.33;85.78;96885.25;5013942;28;20418;-58
2021/01/19 01:52:34;;;;;;;4.00;2.90;;;;;;;1.34;85.41;96885.09;5013644;28;20685;-61
2021/01/19 01:55:00;;;;;;;5.30;3.10;;;;;;;1.50;85.61;96881.75;5010381;28;20476;-57
2021/01/19 01:57:25;;;;;;;5.90;3.53;;;;;;;1.37;85.16;96884.78;4995351;28;20261;-62
2021/01/19 01:59:58;;;;;;;2.93;2.70;;;;;;;1.12;86.41;96877.91;5009848;28;20185;-57
2021/01/19 02:02:23;;;;;;;2.63;2.43;;;;;;;1.10;87.05;96872.06;5013880;28;20183;-60
2021/01/19 02:04:49;;;;;;;4.10;3.00;;;;;;;1.23;86.73;96859.50;5013761;28;20435;-58
2021/01/19 02:07:23;;;;;;;3.13;2.50;;;;;;;1.13;87.37;96857.97;5013804;28;20180;-61
2021/01/19 02:09:57;;;;;;;3.30;2.80;;;;;;;1.28;86.30;96851.28;5013844;28;20223;-61
2021/01/19 02:12:30;;;;;;;5.17;2.87;;;;;;;1.36;86.30;96844.34;5013017;28;20945;-60
2021/01/19 02:15:07;;;;;;;2.63;2.43;;;;;;;1.16;87.08;96855.91;5012115;28;20958;-57
2021/01/19 02:17:46;;;;;;;2.50;2.40;;;;;;;1.37;85.84;96839.97;5014130;28;20408;-62
2021/01/19 02:20:17;;;;;;;2.27;2.17;;;;;;;1.50;85.37;96841.16;4994154;28;20909;-62
2021/01/19 02:23:01;;;;;;;4.73;3.10;;;;;;;1.57;84.38;96831.81;4993856;28;20914;-58
2021/01/19 02:25:45;;;;;;;2.97;2.77;;;;;;;1.60;84.24;96825.47;4994066;28;20516;-62
2021/01/19 02:28:26;;;;;;;2.33;2.13;;;;;;;1.53;84.74;96821.91;4994331;28;20396;-61
2021/01/19 02:31:25;;;;;;;2.80;2.53;;;;;;;1.68;83.79;96823.75;5012672;28;20481;-62
2021/01/19 02:34:06;;;;;;;3.43;2.93;;;;;;;1.77;83.52;96819.38;5010497;28;20435;-61
2021/01/19 02:36:52;;;;;;;2.67;2.47;;;;;;;1.67;83.27;96816.09;4995575;28;20442;-62
2021/01/19 02:39:27;;;;;;;3.80;2.27;;;;;;;1.75;82.17;96819.53;4994888;28;20405;-58
2021/01/19 02:41:54;;;;;;;2.70;2.07;;;;;;;1.68;82.58;96808.19;5013558;28;20466;-62
2021/01/19 02:44:22;;;;;;;4.67;2.67;;;;;;;1.70;82.75;96810.63;5012787;28;20451;-61
2021/01/19 02:46:52;;;;;;;2.53;2.17;;;;;;;1.66;83.14;96804.13;5012942;28;20420;-58
2021/01/19 02:49:18;;;;;;;4.00;2.17;;;;;;;1.86;83.26;96815.81;5012874;28;20556;-61
2021/01/19 02:51:46;;;;;;;6.00;2.70;;;;;;;1.98;81.84;96807.56;5013427;28;20507;-57
2021/01/19 02:54:12;;;;;;;8.90;3.17;;;;;;;1.90;82.05;96804.19;5012403;28;20455;-61
2021/01/19 02:56:47;;;;;;;6.43;2.33;;;;;;;1.79;82.49;96813.03;5013436;28;20452;-62
2021/01/19 02:59:31;;;;;;;2.73;2.53;;;;;;;1.82;82.39;96810.16;5013278;28;20803;-57
2021/01/19 03:02:06;;;;;;;3.13;2.07;;;;;;;1.70;83.08;96811.41;5012962;28;20460;-62
2021/01/19 03:04:32;;;;;;;3.50;2.80;;;;;;;1.94;81.60;96803.69;5007518;28;20483;-61
2021/01/19 03:07:02;;;;;;;2.47;2.27;;;;;;;1.96;81.13;96806.91;4993795;28;20418;-57
2021/01/19 03:09:30;;;;;;;2.50;1.90;;;;;;;1.89;81.74;96799.94;5009274;28;20430;-61
2021/01/19 03:11:56;;;;;;;2.83;2.30;;;;;;;2.04;80.86;96790.56;5012686;28;20479;-57
2021/01/19 03:14:21;;;;;;;2.33;2.13;;;;;;;1.92;81.90;96790.06;5012785;28;20425;-57
2021/01/19 03:16:48;;;;;;;2.03;1.83;;;;;;;2.09;80.82;96783.94;5013324;28;20169;-62
2021/01/19 03:19:16;;;;;;;3.83;2.17;;;;;;;2.09;81.08;96785.72;5012957;28;20168;-61
2021/01/19 03:21:42;;;;;;;6.27;2.20;;;;;;;2.32;80.38;96781.47;4993520;28;20486;-62
2021/01/19 03:24:07;;;;;;;3.00;2.30;;;;;;;2.26;79.77;96789.91;5000683;28;20485;-57
2021/01/19 03:26:33;;;;;;;7.03;2.63;;;;;;;2.49;78.67;96790.03;5016363;28;20177;-57
2021/01/19 03:28:58;;;;;;;4.67;2.13;;;;;;;2.26;79.60;96787.34;5016711;28;20230;-62
2021/01/19 03:31:24;;;;;;;4.60;2.30;;;;;;;2.30;79.52;96791.19;5016718;28;20170;-58
2021/01/19 03:33:49;;;;;;;2.50;2.17;;;;;;;2.30;79.36;96782.63;5015430;28;20230;-61
2021/01/19 03:36:14;;;;;;;3.50;2.50;;;;;;;2.44;79.08;96785.34;5009352;28;20184;-58
2021/01/19 03:38:40;;;;;;;6.50;4.77;;;;;;;2.56;78.54;96778.84;5007235;28;20189;-61
2021/01/19 03:41:05;;;;;;;3.37;2.47;;;;;;;2.57;78.45;96784.84;5016338;28;20206;-61
2021/01/19 03:43:30;;;;;;;2.30;2.10;;;;;;;2.62;78.51;96778.19;5016272;28;20275;-58
2021/01/19 03:45:56;;;;;;;3.80;2.27;;;;;;;2.75;77.51;96781.09;5016315;28;20192;-58
2021/01/19 03:48:21;;;;;;;3.93;2.67;;;;;;;2.65;77.57;96782.22;5016423;28;20174;-61
2021/01/19 03:50:46;;;;;;;4.27;2.30;;;;;;;2.52;77.83;96789.72;5015613;28;20212;-58
2021/01/19 03:53:12;;;;;;;3.00;2.33;;;;;;;2.06;80.80;96776.50;5015669;28;20180;-57
2021/01/19 03:55:37;;;;;;;3.20;2.40;;;;;;;2.14;80.55;96767.88;5016317;28;20177;-58
2021/01/19 03:58:03;;;;;;;2.77;2.57;;;;;;;2.45;78.46;96761.03;5016168;28;20174;-62
2021/01/19 04:00:28;;;;;;;2.30;2.10;;;;;;;2.41;78.77;96762.34;5015907;28;20196;-61
2021/01/19 04:02:53;;;;;;;3.73;3.33;;;;;;;2.44;79.00;96762.03;5015697;28;20248;-62
2021/01/19 04:05:19;;;;;;;3.80;3.10;;;;;;;2.36;79.02;96762.03;5012576;28;20677;-62
2021/01/19 04:07:44;;;;;;;3.50;2.57;;;;;;;2.56;78.56;96758.09;5013643;28;20256;-57
2021/01/19 04:10:12;;;;;;;2.33;2.13;;;;;;;2.50;77.59;96765.75;5016024;28;20204;-57
2021/01/19 04:12:38;;;;;;;3.50;3.20;;;;;;;2.41;77.97;96749.38;5015475;28;20228;-57
2021/01/19 04:15:05;;;;;;;2.33;2.17;;;;;;;2.28;78.59;96737.91;5001551;28;20477;-61
2021/01/19 04:17:31;;;;;;;4.60;2.93;;;;;;;2.45;78.28;96739.47;4996306;28;20893;-57
2021/01/19 04:19:56;;;;;;;4.00;2.80;;;;;;;2.20;78.80;96737.91;5003074;28;20422;-61
2021/01/19 04:22:21;;;;;;;2.60;2.17;;;;;;;2.19;79.28;96734.53;5015730;28;20281;-61
2021/01/19 04:24:47;;;;;;;3.90;2.50;;;;;;;2.12;79.09;96732.75;5015150;28;20249;-58
2021/01/19 04:27:12;;;;;;;2.70;2.50;;;;;;;2.27;78.93;96734.50;5015178;28;20181;-58
2021/01/19 04:29:38;;;;;;;2.43;2.20;;;;;;;2.37;78.13;96736.94;5003380;28;20244;-62
2021/01/19 04:32:03;;;;;;;3.27;2.50;;;;;;;2.49;77.50;96730.41;4996086;28;20652;-57
2021/01/19 04:34:29;;;;;;;2.50;2.30;;;;;;;1.93;79.74;96724.34;5001388;28;20197;-57
2021/01/19 04:36:54;;;;;;;2.40;2.20;;;;;;;1.81;80.25;96723.06;5014312;28;20547;-61
2021/01/19 04:39:19;;;;;;;2.60;2.40;;;;;;;2.21;78.95;96713.63;5014895;28;20520;-61
2021/01/19 04:41:46;;;;;;;3.67;2.30;;;;;;;2.15;79.17;96717.69;5009780;28;20287;-62
2021/01/19 04:44:13;;;;;;;4.53;2.10;;;;;;;1.88;80.18;96703.28;5014620;28;20254;-58
2021/01/19 04:46:40;;;;;;;4.50;2.63;;;;;;;2.09;79.24;96705.38;5015181;28;20414;-57
2021/01/19 04:49:06;;;;;;;2.33;2.13;;;;;;;1.99;79.25;96702.97;5014648;28;20455;-57
2021/01/19 04:51:34;;;;;;;5.50;2.60;;;;;;;1.83;79.45;96704.78;5015268;28;20408;-58
2021/01/19 04:54:04;;;;;;;2.37;2.17;;;;;;;1.91;79.79;96700.41;5006435;28;20547;-61
2021/01/19 04:56:30;;;;;;;4.10;2.57;;;;;;;1.88;79.53;96697.31;4996252;28;20983;-61
2021/01/19 04:58:57;;;;;;;3.43;2.37;;;;;;;1.64;80.15;96702.50;5003256;28;20437;-61
2021/01/19 05:01:51;;;;;;;3.73;2.63;;;;;;;1.56;81.08;96700.72;5014868;28;20205;-58
2021/01/19 05:04:43;;;;;;;3.80;2.97;;;;;;;1.68;81.21;96699.44;4988323;28;20511;-57
2021/01/19 05:07:34;;;;;;;5.43;2.70;;;;;;;1.57;80.39;96692.00;5015151;28;20414;-62
2021/01/19 05:10:12;;;;;;;4.33;2.47;;;;;;;1.55;81.98;96682.78;5014769;28;20392;-61
2021/01/19 05:12:39;;;;;;;3.47;2.50;;;;;;;1.71;80.09;96681.00;5014324;28;20465;-58
2021/01/19 05:15:09;;;;;;;6.17;3.00;;;;;;;1.70;80.84;96671.59;5011809;28;20528;-61
2021/01/19 05:17:35;;;;;;;2.63;2.43;;;;;;;1.68;80.58;96667.56;5012944;28;20424;-62
2021/01/19 05:20:00;;;;;;;3.70;2.63;;;;;;;1.85;79.84;96672.56;5011905;28;20954;-62
2021/01/19 05:22:26;;;;;;;5.07;2.93;;;;;;;1.89;80.13;96663.50;5007185;28;20246;-61
2021/01/19 05:24:52;;;;;;;3.40;2.63;;;;;;;1.80;80.24;96661.06;5014501;28;20192;-62
2021/01/19 05:27:17;;;;;;;3.27;2.83;;;;;;;1.57;81.34;96650.59;5014506;28;20251;-61
2021/01/19 05:29:43;;;;;;;3.47;2.87;;;;;;;1.34;82.26;96649.59;5014570;28;20970;-61
2021/01/19 05:32:08;;;;;;;3.50;2.87;;;;;;;1.24;83.06;96636.03;5014479;28;20165;-62
2021/01/19 05:34:37;;;;;;;2.90;2.63;;;;;;;1.35;82.25;96634.88;5012920;28;20532;-58
2021/01/19 05:37:03;;;;;;;5.40;3.30;;;;;;;1.33;83.03;96610.94;4994523;28;20585;-58
2021/01/19 05:39:29;;;;;;;4.23;3.80;;;;;;;1.46;83.25;96604.31;4994526;28;20448;-58
2021/01/19 05:41:56;;;;;;;2.70;2.50;;;;;;;1.33;83.83;96598.00;4994887;28;20457;-61
2021/01/19 05:44:23;;;;;;;3.80;2.80;;;;;;;1.25;83.22;96598.81;5004516;28;20557;-58
2021/01/19 05:47:03;;;;;;;4.20;2.63;;;;;;;0.91;85.29;96604.16;5014170;28;20405;-61
2021/01/19 05:49:31;;;;;;;3.13;2.50;;;;;;;1.27;84.26;96604.63;5013860;28;20840;-57
2021/01/19 05:52:00;;;;;;;5.00;2.27;;;;;;;1.15;84.27;96605.94;5013998;28;20898;-61
2021/01/19 05:54:28;;;;;;;4.17;2.70;;;;;;;1.00;83.92;96598.00;5011915;28;20760;-57
2021/01/19 05:57:13;;;;;;;5.73;3.43;;;;;;;1.49;83.36;96595.41;4994346;28;20884;-57
2021/01/19 05:59:56;;;;;;;4.30;2.97;;;;;;;1.62;82.09;96588.75;4994075;28;20414;-61
2021/01/19 06:02:23;;;;;;;2.00;1.90;;;;;;;1.63;81.28;96595.53;5004439;28;20493;-58
2021/01/19 06:04:52;;;;;;;3.20;2.70;;;;;;;1.91;80.04;96595.97;5013614;28;20464;-57
2021/01/19 06:07:25;;;;;;;4.13;3.20;;;;;;;1.92;79.26;96598.41;5013752;28;20441;-61
2021/01/19 06:09:52;;;;;;;3.33;2.97;;;;;;;1.62;80.83;96601.72;5013211;28;20507;-57
2021/01/19 06:12:18;;;;;;;3.60;2.50;;;;;;;1.77;80.46;96594.88;5007245;28;20438;-57
2021/01/19 06:14:52;;;;;;;3.63;3.10;;;;;;;1.43;80.77;96586.50;5013033;28;20437;-61
2021/01/19 06:17:22;;;;;;;2.80;2.60;;;;;;;1.61;80.97;96576.78;5013531;28;20416;-61
2021/01/19 06:19:49;;;;;;;3.90;2.70;;;;;;;1.57;80.50;96574.69;5013614;28;20409;-58
2021/01/19 06:22:19;;;;;;;5.10;2.80;;;;;;;1.68;79.43;96575.16;5013321;28;20467;-61
2021/01/19 06:24:46;;;;;;;2.30;2.10;;;;;;;1.70;79.81;96572.41;5013158;28;20434;-61
2021/01/19 06:27:26;;;;;;;2.63;2.43;;;;;;;1.36;80.25;96569.25;5012910;28;20786;-61
2021/01/19 06:30:00;;;;;;;6.13;2.40;;;;;;;1.36;81.13;96562.25;5013404;28;20942;-61
2021/01/19 06:32:27;;;;;;;4.47;2.70;;;;;;;1.57;80.33;96557.41;5012917;28;20527;-58
2021/01/19 06:34:53;;;;;;;2.93;2.63;;;;;;;1.54;80.97;96559.50;5012512;28;20459;-57
2021/01/19 06:37:30;;;;;;;3.60;2.93;;;;;;;1.77;79.78;96553.47;5013466;28;20420;-57
2021/01/19 06:40:10;;;;;;;3.83;2.70;;;;;;;1.76;79.26;96562.19;5013520;28;20657;-58
2021/01/19 06:42:36;;;;;;;3.87;2.63;;;;;;;1.71;78.74;96569.66;5013478;28;20751;-58
2021/01/19 06:45:04;;;;;;;2.93;2.63;;;;;;;1.89;77.85;96572.84;5013334;28;21001;-57
2021/01/19 06:47:36;;;;;;;3.73;2.93;;;;;;;1.73;78.91;96567.72;5012793;28;20436;-61
2021/01/19 06:50:06;;;;;;;3.03;2.63;;;;;;;2.06;78.32;96566.63;5005261;28;20438;-61
2021/01/19 06:52:41;;;;;;;3.57;2.40;;;;;;;1.90;78.19;96564.06;5005562;28;20423;-58
2021/01/19 06:55:23;;;;;;;6.63;2.93;;;;;;;1.95;77.44;96566.19;5013417;28;20518;-62
2021/01/19 06:57:51;;;;;;;3.60;2.63;;;;;;;2.17;76.79;96555.09;5013425;28;20445;-62
2021/01/19 07:00:20;;;;;;;3.93;2.93;;;;;;;1.84;77.15;96549.22;5015540;28;20420;-61
2021/01/19 07:02:53;;;;;;;2.77;2.50;;;;;;;1.80;78.17;96553.13;5016903;28;20419;-61
2021/01/19 07:05:20;;;;;;;7.50;3.00;;;;;;;2.03;77.52;96546.22;5017004;28;20443;-61
2021/01/19 07:08:10;;;;;;;4.53;2.67;;;;;;;2.03;76.33;96541.03;5016477;28;20445;-62
2021/01/19 07:10:48;;;;;;;4.77;3.03;;;;;;;2.03;76.06;96555.78;5017073;28;20450;-62
2021/01/19 07:13:25;;;;;;;3.70;3.10;;;;;;;1.68;77.94;96551.88;5015907;28;20428;-61
2021/01/19 07:15:54;;;;;;;4.10;3.10;;;;;;;1.85;77.16;96548.25;5016229;28;20458;-61
2021/01/19 07:18:42;;;;;;;3.77;3.47;;;;;;;2.10;75.56;96549.75;5016407;28;20451;-61
2021/01/19 07:21:12;;;;;;;4.20;3.80;;;;;;;1.62;77.92;96546.53;5016802;28;20451;-57
2021/01/19 07:23:47;;;;;;;4.97;3.30;;;;;;;1.36;78.17;96553.72;5016502;28;20439;-58
2021/01/19 07:26:16;;;;;;;6.10;3.60;;;;;;;1.37;78.84;96540.59;5016425;28;20932;-62
2021/01/19 07:28:41;;;;;;;4.43;3.17;;;;;;;1.62;78.54;96526.63;5016521;28;20424;-57
2021/01/19 07:31:07;;;;;;;4.30;3.27;;;;;;;1.27;78.89;96531.41;5013417;28;20763;-57
2021/01/19 07:33:33;;;;;;;3.50;3.20;;;;;;;1.47;79.17;96530.06;4996388;28;20190;-61
2021/01/19 07:35:58;;;;;;;5.37;3.67;;;;;;;1.20;80.05;96528.66;4996680;28;20697;-57
2021/01/19 07:38:25;;;;;;;4.10;3.23;;;;;;;1.24;79.73;96518.78;5007833;28;20439;-61
2021/01/19 07:40:51;;;;;;;3.53;3.20;;;;;;;1.48;78.77;96523.91;5001130;28;20201;-61
2021/01/19 07:43:17;;;;;;;6.03;3.57;;;;;;;1.51;79.35;96526.97;4996024;28;20409;-57
2021/01/19 07:45:58;;;;;;;4.40;2.97;;;;;;;1.64;78.22;96511.75;4996927;28;20261;-60
2021/01/19 07:48:37;;;;;;;4.57;3.67;;;;;;;1.82;77.66;96508.91;5016215;28;20408;-60
2021/01/19 07:51:16;;;;;;;4.53;3.50;;;;;;;2.10;76.67;96497.94;5008713;28;20903;-61
2021/01/19 07:53:52;;;;;;;3.93;3.53;;;;;;;2.09;75.54;96505.88;5015552;28;20436;-58
2021/01/19 07:56:31;;;;;;;4.33;3.93;;;;;;;1.92;77.33;96505.16;5015815;28;20883;-58
2021/01/19 07:58:59;;;;;;;5.30;3.60;;;;;;;2.23;76.15;96497.38;5016070;28;20411;-58
2021/01/19 08:01:34;;;;;;;7.40;3.93;;;;;;;2.17;75.38;96492.91;5016087;28;20457;-61
2021/01/19 08:04:15;;;;;;;7.27;3.30;;;;;;;1.99;75.48;96490.53;5014304;28;20439;-58
2021/01/19 08:06:44;;;;;;;8.43;3.70;;;;;;;2.06;76.55;96486.31;5014201;28;20458;-58
2021/01/19 08:09:09;;;;;;;6.63;3.00;;;;;;;1.96;76.30;96480.53;5015962;28;20403;-58
2021/01/19 08:11:35;;;;;;;4.60;3.30;;;;;;;1.84;76.85;96483.66;5015471;28;20412;-58
2021/01/19 08:14:01;;;;;;;2.60;2.40;;;;;;;1.94;76.36;96476.47;5013301;28;20223;-61
2021/01/19 08:16:29;;;;;;;4.57;3.40;;;;;;;1.77;76.79;96475.78;5015848;28;20416;-57
2021/01/19 08:19:05;;;;;;;5.23;3.63;;;;;;;1.86;76.65;96471.34;5015245;28;20404;-58
2021/01/19 08:21:35;;;;;;;4.87;3.30;;;;;;;1.86;76.70;96461.81;5015618;28;20451;-57
2021/01/19 08:24:08;;;;;;;6.40;3.70;;;;;;;1.78;77.11;96466.19;5008315;28;20461;-63
2021/01/19 08:26:37;;;;;;;4.53;3.67;;;;;;;1.53;78.11;96462.91;4995993;28;20411;-58
2021/01/19 08:29:05;;;;;;;3.47;3.20;;;;;;;1.90;76.82;96449.34;4995838;28;20907;-65
2021/01/19 08:31:32;;;;;;;5.50;3.20;;;;;;;2.00;76.24;96440.38;4995944;28;20415;-57
2021/01/19 08:34:02;;;;;;;4.40;3.47;;;;;;;2.55;75.28;96428.97;5000323;28;20471;-58
2021/01/19 08:36:28;;;;;;;5.70;3.50;;;;;;;2.97;74.28;96414.47;5014218;28;20836;-58
2021/01/19 08:38:56;;;;;;;6.33;3.30;;;;;;;2.89;74.14;96418.94;5008191;28;20426;-61
2021/01/19 08:41:21;;;;;;;4.90;3.10;;;;;;;2.69;73.95;96428.22;5013427;28;20994;-58
2021/01/19 08:43:52;;;;;;;4.27;3.70;;;;;;;3.07;73.08;96428.03;5010565;28;20429;-56
2021/01/19 08:46:17;;;;;;;6.07;3.73;;;;;;;2.79;73.47;96426.97;5010365;28;20185;-55
2021/01/19 08:48:43;;;;;;;3.87;3.53;;;;;;;2.55;74.60;96426.38;5011659;28;20404;-54
2021/01/19 08:51:21;;;;;;;7.00;4.30;;;;;;;2.66;74.18;96428.56;5010592;28;20178;-55
2021/01/19 08:53:47;;;;;;;4.23;3.50;;;;;;;2.63;74.43;96429.72;5010621;28;20672;-56
2021/01/19 08:56:23;;;;;;;7.43;4.40;;;;;;;2.55;74.24;96428.97;5011818;28;20415;-56
2021/01/19 08:58:49;;;;;;;5.53;3.30;;;;;;;2.34;75.41;96421.84;5002882;28;20175;-55
2021/01/19 09:01:15;;;;;;;6.67;3.53;;;;;;;2.04;75.97;96415.75;4991726;28;20461;-57
2021/01/19 09:03:40;;;;;;;4.43;3.97;;;;;;;2.07;76.87;96419.75;5008887;28;20199;-55
2021/01/19 09:06:08;;;;;;;4.90;3.83;;;;;;;2.34;75.85;96423.66;5010951;28;20412;-58
2021/01/19 09:08:35;;;;;;;6.73;4.30;;;;;;;2.50;75.66;96426.09;5010423;28;20262;-56
2021/01/19 09:11:08;;;;;;;4.50;3.60;;;;;;;2.80;74.65;96430.38;5010157;28;20420;-59
2021/01/19 09:13:39;;;;;;;7.47;4.40;;;;;;;3.01;73.64;96428.72;5008873;28;20837;-57
2021/01/19 09:16:06;;;;;;;5.67;3.80;;;;;;;3.08;72.88;96428.81;5001780;28;20938;-59
2021/01/19 09:18:32;;;;;;;3.13;2.83;;;;;;;2.47;74.61;96447.19;5008190;28;20450;-59
2021/01/19 09:21:08;;;;;;;3.97;3.67;;;;;;;2.40;76.05;96433.28;5000602;28;20463;-59
2021/01/19 09:23:35;;;;;;;5.13;3.63;;;;;;;2.53;75.98;96425.75;5009876;28;20435;-60
2021/01/19 09:26:06;;;;;;;7.10;3.70;;;;;;;2.43;76.11;96418.19;5009432;28;20479;-60
2021/01/19 09:28:36;;;;;;;4.13;3.77;;;;;;;2.46;75.67;96398.91;5010629;28;20429;-54
2021/01/19 09:31:33;;;;;;;5.97;4.20;;;;;;;2.53;76.20;96402.41;5010185;28;20458;-55
2021/01/19 09:33:59;;;;;;;4.00;3.03;;;;;;;2.67;75.04;96401.63;5008604;28;20971;-55
2021/01/19 09:36:24;;;;;;;4.17;3.63;;;;;;;2.53;76.13;96400.63;5012086;28;20437;-59
2021/01/19 09:38:53;;;;;;;3.53;3.07;;;;;;;2.81;75.38;96390.47;5016350;28;20180;-60
2021/01/19 09:41:27;;;;;;;5.47;4.27;;;;;;;2.87;75.00;96379.41;5003656;28;20207;-57
2021/01/19 09:43:55;;;;;;;3.83;3.43;;;;;;;2.90;74.76;96377.25;5005199;28;20461;-55
2021/01/19 09:46:23;;;;;;;4.40;3.87;;;;;;;3.16;74.26;96371.63;5005437;28;20963;-57
2021/01/19 09:48:51;;;;;;;7.40;4.37;;;;;;;2.73;76.32;96378.41;5011823;28;20426;-54
2021/01/19 09:51:27;;;;;;;11.83;5.40;;;;;;;2.64;76.65;96356.13;5012791;28;20812;-54
2021/01/19 09:53:55;;;;;;;5.53;4.17;;;;;;;2.81;76.59;96359.34;5013623;28;20428;-54
2021/01/19 09:56:20;;;;;;;4.53;3.93;;;;;;;3.07;76.30;96347.56;5013894;28;20400;-54
2021/01/19 09:58:46;;;;;;;8.63;4.43;;;;;;;2.90;76.22;96356.50;5013757;28;20970;-54
2021/01/19 10:01:24;;;;;;;4.73;3.37;;;;;;;2.82;76.43;96348.00;5013888;28;20211;-54
2021/01/19 10:03:49;;;;;;;7.03;3.80;;;;;;;3.13;76.55;96333.06;5013401;28;20757;-56
2021/01/19 10:06:19;;;;;;;5.07;3.03;;;;;;;2.60;77.10;96325.53;5013893;28;20447;-56
2021/01/19 10:08:50;;;;;;;9.03;4.00;;;;;;;2.85;77.43;96326.91;5013826;28;20179;-56
2021/01/19 10:11:33;;;;;;;5.80;4.10;;;;;;;2.88;76.87;96324.75;5014089;28;20460;-56
2021/01/19 10:14:09;;;;;;;5.37;3.90;;;;;;;2.73;77.97;96316.19;5013085;28;20466;-57
2021/01/19 10:16:35;;;;;;;4.13;3.27;;;;;;;3.16;76.64;96314.53;5013294;28;20439;-57
2021/01/19 10:19:00;;;;;;;6.40;3.47;;;;;;;3.13;76.23;96301.94;5013625;28;20848;-56
2021/01/19 10:21:30;;;;;;;6.40;3.77;;;;;;;3.06;76.34;96301.06;5013928;28;20199;-54
2021/01/19 10:23:56;;;;;;;4.90;3.97;;;;;;;3.14;76.82;96293.97;5013189;28;20206;-57
2021/01/19 10:26:28;;;;;;;4.77;3.40;;;;;;;2.86;77.36;96293.00;5013597;28;20861;-54
2021/01/19 10:28:56;;;;;;;5.70;3.60;;;;;;;2.81;78.35;96279.75;5013467;28;20193;-54
2021/01/19 10:31:24;;;;;;;6.40;3.97;;;;;;;2.99;77.60;96274.19;5013161;28;20939;-57
2021/01/19 10:34:00;;;;;;;6.63;3.67;;;;;;;3.27;76.55;96276.94;5015279;28;20801;-57
2021/01/19 10:36:27;;;;;;;4.20;3.50;;;;;;;3.07;77.13;96282.69;5017868;28;20412;-54
2021/01/19 10:38:54;;;;;;;3.13;2.83;;;;;;;3.08;77.34;96271.31;5017437;28;20410;-54
2021/01/19 10:41:41;;;;;;;6.73;3.50;;;;;;;2.92;78.17;96275.91;5017116;28;20451;-57
2021/01/19 10:44:11;;;;;;;4.50;2.30;;;;;;;2.89;78.58;96265.91;5016917;28;20555;-58
2021/01/19 10:46:36;;;;;;;3.70;2.50;;;;;;;2.92;78.24;96265.53;5017581;28;20413;-53
2021/01/19 10:49:08;;;;;;;4.60;3.73;;;;;;;2.71;79.30;96260.28;5017474;28;20407;-56
2021/01/19 10:51:35;;;;;;;6.30;2.30;;;;;;;2.84;79.34;96237.91;5017530;28;20163;-53
2021/01/19 10:54:08;;;;;;;3.67;2.80;;;;;;;2.85;78.61;96241.28;5016746;28;20430;-56
2021/01/19 10:56:34;;;;;;;4.27;3.90;;;;;;;2.98;79.08;96233.69;5016914;28;20415;-59
2021/01/19 10:59:00;;;;;;;8.87;3.13;;;;;;;2.85;79.23;96256.84;5016740;28;20427;-53
2021/01/19 11:01:26;;;;;;;5.37;3.60;;;;;;;2.68;79.24;96242.50;5017205;28;20548;-57
2021/01/19 11:03:52;;;;;;;5.10;3.83;;;;;;;2.76;79.64;96230.22;5016483;28;20204;-57
2021/01/19 11:06:17;;;;;;;8.23;3.10;;;;;;;3.05;78.51;96225.00;5017166;28;20409;-54
2021/01/19 11:08:43;;;;;;;4.90;3.30;;;;;;;2.86;77.92;96224.75;5016851;28;20178;-58
2021/01/19 11:11:11;;;;;;;3.17;2.83;;;;;;;2.86;78.72;96206.59;5016989;28;20169;-57
2021/01/19 11:13:37;;;;;;;3.03;2.70;;;;;;;2.86;78.68;96207.38;5016269;28;20200;-57
2021/01/19 11:16:03;;;;;;;6.00;3.40;;;;;;;2.79;78.49;96196.13;5017026;28;20418;-57
2021/01/19 11:18:29;;;;;;;5.20;3.80;;;;;;;3.10;77.75;96183.72;5016915;28;20250;-57
2021/01/19 11:20:54;;;;;;;7.20;4.07;;;;;;;3.39;76.59;96182.81;5016852;28;20543;-58
2021/01/19 11:23:20;;;;;;;4.30;3.20;;;;;;;3.48;76.39;96173.91;5016202;28;20205;-54
2021/01/19 11:25:45;;;;;;;6.33;2.90;;;;;;;3.12;76.36;96168.78;5016711;28;20661;-54
2021/01/19 11:28:10;;;;;;;6.47;4.37;;;;;;;3.27;76.97;96171.31;5016865;28;20516;-57
2021/01/19 11:30:36;;;;;;;7.77;5.13;;;;;;;3.34;76.65;96184.34;5016624;28;20199;-53
2021/01/19 11:33:01;;;;;;;3.60;3.27;;;;;;;3.22;76.57;96173.66;5015864;28;20716;-53
2021/01/19 11:35:26;;;;;;;3.80;2.67;;;;;;;3.30;75.59;96164.97;5016600;28;20246;-53
2021/01/19 11:37:54;;;;;;;3.13;2.90;;;;;;;3.41;75.90;96164.44;5016870;28;20206;-54
2021/01/19 11:40:20;;;;;;;5.30;3.20;;;;;;;3.47;75.34;96166.31;5016435;28;20184;-53
2021/01/19 11:42:45;;;;;;;4.30;3.07;;;;;;;3.47;75.13;96167.13;5014367;28;20423;-54
2021/01/19 11:45:11;;;;;;;4.73;3.20;;;;;;;3.16;75.80;96169.22;5015434;28;20570;-57
2021/01/19 11:47:36;;;;;;;4.10;3.10;;;;;;;3.37;75.77;96176.22;5016288;28;20174;-57
2021/01/19 11:50:03;;;;;;;5.50;2.90;;;;;;;3.36;75.15;96159.81;5015399;28;20185;-56